Time;durP1;ratioP1;P1;durP2;ratioP2;P2;SDS_P1;SDS_P2;PMS_P1;PMS_P2;Temp;Humidity;BMP_temperature;BMP_pressure;BME280_temperature;BME280_humidity;BME280_pressure;Samples;Min_cycle;Max_cycle;Signal;HPM_P1;HPM_P2
2023/04/10 00:00:56;;;;;;;15.00;8.57;;;12.90;99.90;;;;;;4039006;29;20639;-90
2023/04/10 00:03:02;;;;;;;12.25;8.60;;;12.80;99.90;;;;;;4023426;29;20194;-91
2023/04/10 00:05:03;;;;;;;13.18;9.02;;;12.90;99.90;;;;;;4037868;29;20190;-91
2023/04/10 00:07:04;;;;;;;11.88;7.90;;;13.00;99.90;;;;;;4038668;29;20249;-94
2023/04/10 00:09:05;;;;;;;11.77;8.07;;;13.10;99.90;;;;;;4038323;29;20257;-90
2023/04/10 00:11:06;;;;;;;11.57;8.02;;;13.10;99.90;;;;;;4022906;29;20182;-96
2023/04/10 00:13:06;;;;;;;12.93;8.65;;;13.20;99.90;;;;;;4038214;29;20229;-90
2023/04/10 00:15:07;;;;;;;14.35;8.48;;;13.30;99.90;;;;;;4022998;29;20186;-90
2023/04/10 00:17:08;;;;;;;11.23;7.90;;;13.30;99.90;;;;;;4023262;29;20210;-94
2023/04/10 00:19:09;;;;;;;13.52;8.38;;;13.30;99.90;;;;;;4023073;29;20175;-90
2023/04/10 00:21:10;;;;;;;12.43;7.72;;;13.30;99.90;;;;;;4053813;29;20279;-92
2023/04/10 00:23:11;;;;;;;11.13;7.90;;;13.20;99.90;;;;;;4022896;29;20205;-90
2023/04/10 00:25:11;;;;;;;11.98;7.78;;;13.10;99.90;;;;;;4038399;29;20642;-90
2023/04/10 00:27:12;;;;;;;11.85;7.68;;;13.10;99.90;;;;;;4053610;29;20184;-90
2023/04/10 00:29:14;;;;;;;13.02;7.70;;;13.00;99.90;;;;;;4022743;29;20222;-91
2023/04/10 00:31:15;;;;;;;10.98;7.68;;;12.90;99.90;;;;;;4038209;29;20604;-90
2023/04/10 00:33:16;;;;;;;11.15;7.57;;;12.90;99.90;;;;;;4022677;29;20198;-93
2023/04/10 00:35:16;;;;;;;11.90;7.55;;;12.90;99.90;;;;;;4038150;29;20281;-89
2023/04/10 00:37:17;;;;;;;10.20;7.40;;;12.80;99.90;;;;;;4038051;29;20631;-90
2023/04/10 00:39:18;;;;;;;12.20;7.25;;;12.80;99.90;;;;;;4022813;29;20178;-90
2023/04/10 00:41:19;;;;;;;10.30;7.38;;;12.80;99.90;;;;;;4038304;29;20622;-91
2023/04/10 00:43:21;;;;;;;12.77;7.18;;;12.80;99.90;;;;;;4037885;29;20189;-91
2023/04/10 00:45:21;;;;;;;10.50;6.80;;;12.60;99.90;;;;;;4022675;29;20182;-90
2023/04/10 00:47:22;;;;;;;9.73;6.90;;;12.50;99.90;;;;;;4038183;29;20520;-90
2023/04/10 00:49:23;;;;;;;9.10;6.57;;;12.50;99.90;;;;;;4022556;29;20213;-90
2023/04/10 00:51:25;;;;;;;8.90;6.28;;;12.50;99.90;;;;;;4022699;29;20211;-90
2023/04/10 00:53:27;;;;;;;10.82;6.43;;;12.40;99.90;;;;;;4037998;29;20264;-95
2023/04/10 00:55:28;;;;;;;9.70;6.40;;;12.30;99.90;;;;;;4038199;29;20272;-90
2023/04/10 00:57:29;;;;;;;14.73;7.28;;;12.30;99.90;;;;;;4037753;29;20205;-95
2023/04/10 00:59:30;;;;;;;7.78;5.93;;;12.20;99.90;;;;;;4022731;29;20212;-91
2023/04/10 01:01:31;;;;;;;8.27;5.95;;;12.20;99.90;;;;;;4022679;29;20180;-91
2023/04/10 01:03:31;;;;;;;9.95;6.90;;;12.20;99.90;;;;;;4037580;29;20193;-93
2023/04/10 01:05:42;;;;;;;9.25;6.53;;;12.20;99.90;;;;;;4022480;29;20181;-93
2023/04/10 01:07:49;;;;;;;9.20;6.78;;;12.10;99.90;;;;;;4022343;29;20166;-90
2023/04/10 01:10:09;;;;;;;8.80;6.40;;;12.10;99.90;;;;;;4037525;29;20228;-95
2023/04/10 01:12:24;;;;;;;11.05;6.93;;;12.20;99.90;;;;;;4022297;29;20182;-90
2023/04/10 01:14:48;;;;;;;10.05;6.60;;;12.20;99.90;;;;;;4037468;29;20193;-94
2023/04/10 01:17:00;;;;;;;10.30;6.47;;;12.20;99.90;;;;;;4037323;29;20328;-94
2023/04/10 01:19:15;;;;;;;12.25;6.93;;;12.10;99.90;;;;;;4022417;29;20234;-90
2023/04/10 01:21:16;;;;;;;9.90;6.03;;;12.10;99.90;;;;;;4022449;29;20686;-94
2023/04/10 01:23:20;;;;;;;11.27;6.28;;;12.20;99.90;;;;;;4021965;29;20651;-94
2023/04/10 01:25:40;;;;;;;10.75;6.38;;;12.30;99.90;;;;;;4037346;29;20185;-91
2023/04/10 01:28:03;;;;;;;11.43;6.60;;;12.50;99.90;;;;;;4037636;29;20184;-90
2023/04/10 01:30:07;;;;;;;10.60;6.38;;;12.50;99.90;;;;;;4022256;29;20218;-92
2023/04/10 01:32:11;;;;;;;7.63;5.47;;;12.50;99.90;;;;;;4022220;29;20174;-94
2023/04/10 01:34:19;;;;;;;11.50;6.32;;;12.50;99.90;;;;;;4037305;29;20209;-90
2023/04/10 01:36:26;;;;;;;10.50;6.47;;;12.40;99.90;;;;;;4022096;29;20253;-90
2023/04/10 01:38:29;;;;;;;10.23;5.75;;;12.30;99.90;;;;;;4037760;29;20216;-90
2023/04/10 01:40:31;;;;;;;11.15;6.18;;;12.30;99.90;;;;;;4022225;29;20181;-90
2023/04/10 01:42:37;;;;;;;10.98;5.75;;;12.40;99.90;;;;;;4021974;29;20238;-93
2023/04/10 01:44:42;;;;;;;16.00;6.20;;;12.10;99.90;;;;;;4022268;29;20644;-92
2023/04/10 01:46:45;;;;;;;13.98;6.40;;;12.00;99.90;;;;;;4022156;29;20675;-90
2023/04/10 01:48:48;;;;;;;9.27;6.05;;;12.10;99.90;;;;;;4021612;29;20730;-91
2023/04/10 01:50:50;;;;;;;10.90;5.90;;;12.10;99.90;;;;;;4021938;29;20186;-90
2023/04/10 01:52:51;;;;;;;10.32;6.60;;;12.20;99.90;;;;;;4022209;29;20228;-91
2023/04/10 01:55:04;;;;;;;9.65;6.28;;;12.20;99.90;;;;;;4023039;29;20196;-95
2023/04/10 01:57:13;;;;;;;9.13;5.68;;;12.20;99.90;;;;;;4022829;29;20210;-89
2023/04/10 01:59:24;;;;;;;8.75;5.57;;;12.20;99.90;;;;;;4037511;29;20197;-94
2023/04/10 02:01:25;;;;;;;10.07;5.45;;;12.20;99.90;;;;;;4022023;29;20552;-90
2023/04/10 02:03:26;;;;;;;15.65;6.30;;;12.10;99.90;;;;;;4037275;29;20819;-90
2023/04/10 02:05:36;;;;;;;8.98;5.40;;;12.20;99.90;;;;;;4022044;29;20178;-95
2023/04/10 02:07:56;;;;;;;11.10;5.50;;;12.10;99.90;;;;;;4021689;29;20178;-90
2023/04/10 02:10:13;;;;;;;9.27;5.90;;;12.20;99.90;;;;;;4021577;29;20206;-90
2023/04/10 02:12:35;;;;;;;11.82;6.13;;;12.40;99.90;;;;;;4052786;29;20180;-90
2023/04/10 02:14:40;;;;;;;8.43;5.50;;;12.30;99.90;;;;;;4037522;29;20242;-90
2023/04/10 02:16:42;;;;;;;10.10;5.82;;;12.30;99.90;;;;;;4021986;29;20614;-90
2023/04/10 02:18:45;;;;;;;11.65;6.18;;;12.20;99.90;;;;;;4021841;29;20183;-91
2023/04/10 02:20:46;;;;;;;9.10;6.18;;;12.30;99.90;;;;;;4021717;29;20678;-90
2023/04/10 02:22:47;;;;;;;11.30;5.82;;;12.20;99.90;;;;;;4037121;29;20204;-90
2023/04/10 02:24:48;;;;;;;8.55;5.40;;;12.10;99.90;;;;;;4037310;29;20177;-94
2023/04/10 02:26:50;;;;;;;11.52;6.80;;;12.20;99.90;;;;;;4021932;29;20182;-90
2023/04/10 02:28:51;;;;;;;8.95;5.90;;;12.10;99.90;;;;;;4038535;29;20584;-90
2023/04/10 02:30:52;;;;;;;9.30;5.75;;;12.10;99.90;;;;;;4040113;29;20260;-90
2023/04/10 02:32:52;;;;;;;7.57;5.50;;;12.10;99.90;;;;;;4024695;29;20190;-89
2023/04/10 02:34:54;;;;;;;10.27;6.00;;;11.90;99.90;;;;;;4024513;29;20257;-89
2023/04/10 02:36:55;;;;;;;9.00;5.55;;;11.90;99.90;;;;;;4024749;29;20175;-90
2023/04/10 02:38:55;;;;;;;9.60;5.80;;;11.90;99.90;;;;;;4024388;29;20231;-91
2023/04/10 02:40:58;;;;;;;9.50;6.20;;;11.80;99.90;;;;;;4039770;29;20177;-90
2023/04/10 02:43:00;;;;;;;11.55;5.80;;;11.70;99.90;;;;;;4024368;29;20202;-90
2023/04/10 02:45:00;;;;;;;9.38;5.57;;;11.80;99.90;;;;;;4039866;29;20201;-90
2023/04/10 02:47:07;;;;;;;6.60;5.25;;;11.90;99.90;;;;;;4039933;29;20177;-94
2023/04/10 02:49:09;;;;;;;10.90;6.63;;;11.90;99.90;;;;;;4024368;29;20668;-90
2023/04/10 02:51:09;;;;;;;8.98;6.05;;;11.80;99.90;;;;;;4039769;29;20218;-90
2023/04/10 02:53:15;;;;;;;8.35;5.93;;;11.80;99.90;;;;;;4024206;29;20222;-90
2023/04/10 20:58:47;;;;;;;10.90;2.00;;;11.20;99.90;;;;;;4052974;29;20203;-90
2023/04/10 21:00:52;;;;;;;12.68;2.33;;;11.50;99.90;;;;;;4038012;29;20217;-90
2023/04/10 21:02:53;;;;;;;16.48;1.98;;;11.60;99.90;;;;;;4037951;29;20727;-90
2023/04/10 21:04:53;;;;;;;18.35;2.53;;;11.40;99.90;;;;;;4053413;29;20173;-90
2023/04/10 21:06:54;;;;;;;17.48;2.53;;;11.50;99.90;;;;;;4053248;29;20708;-91
2023/04/10 21:08:55;;;;;;;15.25;2.75;;;11.60;99.90;;;;;;4037734;29;20184;-91
2023/04/10 21:10:58;;;;;;;20.95;2.45;;;11.60;99.90;;;;;;4037899;29;20188;-90
2023/04/10 21:12:59;;;;;;;11.82;1.88;;;11.60;99.90;;;;;;4037799;29;20189;-90
2023/04/10 21:15:00;;;;;;;14.52;2.50;;;11.60;99.90;;;;;;4053182;29;20185;-90
2023/04/10 21:17:01;;;;;;;12.93;2.13;;;11.50;99.90;;;;;;4053111;29;20202;-90
2023/04/10 21:19:02;;;;;;;14.32;2.50;;;11.50;99.90;;;;;;4037608;29;20180;-89
2023/04/10 21:21:03;;;;;;;14.68;2.38;;;11.60;99.90;;;;;;4037652;29;20641;-90
2023/04/10 21:23:04;;;;;;;15.82;2.80;;;11.50;99.90;;;;;;4052994;29;20288;-90
2023/04/10 21:25:05;;;;;;;17.45;3.10;;;11.40;99.90;;;;;;4037647;29;20204;-90
2023/04/10 21:27:06;;;;;;;18.63;2.60;;;11.40;99.90;;;;;;4037956;29;20182;-91
2023/04/10 21:29:07;;;;;;;26.92;2.92;;;11.40;99.90;;;;;;4037631;29;20189;-90
2023/04/10 21:31:08;;;;;;;21.55;2.25;;;11.40;99.90;;;;;;4052930;29;20697;-90
2023/04/10 21:33:09;;;;;;;20.83;3.00;;;11.40;99.90;;;;;;4037216;29;20193;-90
2023/04/10 21:35:10;;;;;;;23.23;3.15;;;11.50;99.90;;;;;;4037744;29;20189;-90
2023/04/10 21:37:10;;;;;;;21.38;2.70;;;11.50;99.90;;;;;;4053090;29;20264;-90
2023/04/10 21:39:11;;;;;;;21.85;2.92;;;11.50;99.90;;;;;;4037571;29;20174;-90
2023/04/10 21:41:12;;;;;;;25.45;2.70;;;11.50;99.90;;;;;;4037445;29;20290;-89
2023/04/10 21:43:12;;;;;;;19.63;3.17;;;11.50;99.90;;;;;;4037270;29;20213;-90
2023/04/10 21:45:14;;;;;;;20.95;3.35;;;11.40;99.90;;;;;;4037344;29;20587;-90
2023/04/10 21:47:15;;;;;;;19.25;2.63;;;11.30;99.90;;;;;;4037386;29;20181;-90
2023/04/10 21:49:15;;;;;;;28.70;3.10;;;11.30;99.90;;;;;;4052697;29;20271;-89
2023/04/10 21:51:16;;;;;;;23.58;2.80;;;11.20;99.90;;;;;;4052686;29;20191;-90
2023/04/10 21:53:18;;;;;;;24.47;3.73;;;11.20;99.90;;;;;;4052728;29;20604;-89
2023/04/10 21:55:19;;;;;;;31.58;2.78;;;11.00;99.90;;;;;;4052886;29;20185;-90
2023/04/10 21:57:20;;;;;;;21.50;2.80;;;10.90;99.90;;;;;;4037164;29;20749;-90
2023/04/10 21:59:20;;;;;;;23.45;3.00;;;10.90;99.90;;;;;;4037385;29;20272;-91
2023/04/10 22:01:21;;;;;;;30.17;3.65;;;10.80;99.90;;;;;;4037464;29;20182;-90
2023/04/10 22:03:22;;;;;;;22.25;3.03;;;10.90;99.90;;;;;;4052958;29;20203;-89
2023/04/10 22:05:23;;;;;;;29.40;3.90;;;10.80;99.90;;;;;;4037552;29;20184;-90
2023/04/10 22:07:24;;;;;;;24.00;2.95;;;11.00;99.90;;;;;;4068280;29;20271;-90
2023/04/10 22:09:24;;;;;;;24.42;3.47;;;11.10;99.90;;;;;;4052653;29;20181;-90
2023/04/10 22:11:25;;;;;;;23.60;3.53;;;11.00;99.90;;;;;;4052917;29;20181;-90
2023/04/10 22:13:26;;;;;;;30.60;3.55;;;11.20;99.90;;;;;;4037103;29;20208;-90
2023/04/10 22:15:26;;;;;;;25.83;2.80;;;11.10;99.90;;;;;;4052993;29;20185;-91
2023/04/10 22:17:27;;;;;;;26.38;3.33;;;11.10;99.90;;;;;;4037307;29;20216;-89
2023/04/10 22:19:28;;;;;;;26.17;3.60;;;11.10;99.90;;;;;;4068088;29;20609;-89
2023/04/10 22:21:28;;;;;;;32.83;3.58;;;11.20;99.90;;;;;;4037230;29;20200;-90
2023/04/10 22:23:30;;;;;;;32.90;4.50;;;11.10;99.90;;;;;;4052607;29;20232;-90
2023/04/10 22:25:31;;;;;;;20.88;3.22;;;11.10;99.90;;;;;;4037230;29;20178;-90
2023/04/10 22:27:32;;;;;;;19.92;3.28;;;11.00;99.90;;;;;;4037129;29;20640;-91
2023/04/10 22:29:34;;;;;;;28.58;3.45;;;10.80;99.90;;;;;;4037007;29;20213;-90
2023/04/10 22:31:34;;;;;;;28.85;3.83;;;10.70;99.90;;;;;;4037281;29;20178;-90
2023/04/10 22:33:36;;;;;;;25.97;3.33;;;10.70;99.90;;;;;;4037036;29;20229;-91
2023/04/10 22:35:37;;;;;;;30.60;3.42;;;10.70;99.90;;;;;;4037231;29;20178;-90
2023/04/10 22:37:38;;;;;;;31.92;3.85;;;10.60;99.90;;;;;;4052603;29;20272;-90
2023/04/10 22:39:38;;;;;;;39.10;4.40;;;10.70;99.90;;;;;;4037133;29;20192;-90
2023/04/10 22:41:39;;;;;;;23.75;3.40;;;10.60;99.90;;;;;;4052530;29;20642;-90
2023/04/10 22:43:40;;;;;;;33.03;4.32;;;10.70;99.90;;;;;;4052372;29;20197;-90
2023/04/10 22:45:41;;;;;;;33.35;3.70;;;10.70;99.90;;;;;;4038334;29;20177;-90
2023/04/10 22:47:41;;;;;;;30.60;3.80;;;10.70;99.90;;;;;;4039808;29;20205;-89
2023/04/10 22:49:42;;;;;;;22.27;3.25;;;10.60;99.90;;;;;;4055422;29;20177;-90
2023/04/10 22:51:44;;;;;;;37.28;4.30;;;10.50;99.90;;;;;;4039933;29;20190;-90
2023/04/10 22:53:45;;;;;;;34.73;3.97;;;10.40;99.90;;;;;;4039628;29;20571;-90
2023/04/10 22:55:46;;;;;;;25.63;3.70;;;10.50;99.90;;;;;;4055146;29;20232;-90
2023/04/10 22:57:49;;;;;;;34.78;4.72;;;10.60;99.90;;;;;;4039450;29;20189;-90
2023/04/10 22:59:50;;;;;;;33.43;3.87;;;10.70;99.90;;;;;;4055083;29;20216;-90
2023/04/10 23:01:51;;;;;;;37.47;4.00;;;10.70;99.90;;;;;;4055064;29;20184;-90
2023/04/10 23:03:52;;;;;;;38.75;4.05;;;10.70;99.90;;;;;;4039303;29;20285;-90
2023/04/10 23:05:53;;;;;;;42.83;4.70;;;10.70;99.90;;;;;;4055032;29;20183;-90
2023/04/10 23:07:54;;;;;;;37.73;4.23;;;10.70;99.90;;;;;;4055314;29;20177;-88
2023/04/10 23:09:55;;;;;;;34.83;4.67;;;10.70;99.90;;;;;;4039623;29;20174;-90
2023/04/10 23:11:56;;;;;;;40.15;4.03;;;10.60;99.90;;;;;;4055050;29;20232;-90
2023/04/10 23:13:56;;;;;;;28.50;3.47;;;10.60;99.90;;;;;;4039286;29;20208;-91
2023/04/10 23:15:57;;;;;;;34.45;4.55;;;10.50;99.90;;;;;;4070551;29;20180;-90
2023/04/10 23:17:58;;;;;;;39.63;4.83;;;10.50;99.90;;;;;;4039638;29;20262;-88
2023/04/10 23:19:58;;;;;;;37.50;4.53;;;10.60;99.90;;;;;;4054829;29;20208;-90
2023/04/10 23:21:59;;;;;;;38.30;4.17;;;10.70;99.90;;;;;;4054875;29;20212;-90
2023/04/10 23:24:00;;;;;;;39.95;5.13;;;10.70;99.90;;;;;;4039220;29;20193;-89
2023/04/10 23:26:00;;;;;;;32.90;4.30;;;10.90;99.90;;;;;;4039399;29;20268;-90
2023/04/10 23:28:02;;;;;;;37.43;5.43;;;10.80;99.90;;;;;;4054786;29;20185;-90
2023/04/10 23:30:03;;;;;;;41.50;4.47;;;10.90;99.90;;;;;;4054916;29;20188;-90
2023/04/10 23:32:04;;;;;;;39.90;4.47;;;11.00;99.90;;;;;;4054476;29;20188;-89
2023/04/10 23:34:04;;;;;;;35.60;4.23;;;11.00;99.90;;;;;;4054671;29;20197;-90
2023/04/10 23:36:05;;;;;;;34.77;4.37;;;11.10;99.90;;;;;;4054716;29;20275;-90
2023/04/10 23:38:06;;;;;;;39.63;5.03;;;10.90;99.90;;;;;;4054434;29;20212;-89
2023/04/10 23:40:07;;;;;;;43.00;5.20;;;10.90;99.90;;;;;;4039106;29;20242;-89
2023/04/10 23:42:08;;;;;;;42.92;4.32;;;10.90;99.90;;;;;;4054725;29;20183;-94
2023/04/10 23:44:09;;;;;;;36.92;4.80;;;10.90;99.90;;;;;;4038844;29;20205;-89
2023/04/10 23:46:09;;;;;;;50.55;5.38;;;10.80;99.90;;;;;;4038979;29;20210;-90
2023/04/10 23:48:10;;;;;;;38.97;4.40;;;10.80;99.90;;;;;;4054552;29;20249;-90
2023/04/10 23:50:11;;;;;;;39.00;4.22;;;10.70;99.90;;;;;;4054389;29;20184;-90
2023/04/10 23:52:12;;;;;;;37.90;4.00;;;10.70;99.90;;;;;;4054375;29;20177;-90
2023/04/10 23:54:12;;;;;;;44.57;5.50;;;10.70;99.90;;;;;;4038853;29;20205;-91
2023/04/10 23:56:13;;;;;;;39.77;4.67;;;10.70;99.90;;;;;;4038483;29;20219;-90
2023/04/10 23:58:14;;;;;;;34.75;4.65;;;10.90;99.90;;;;;;4054154;29;20192;-89
